Tiempo atmosférico en la estación meteorológica de Es Mercadal, Illes Balears (77 m.)



Fecha
DESCASC
Temp. máxima en grados centígrados (hora)
DESCASC
Temp. mínima en grados centígrados (hora)
DESCASC
Temp. media en grados centígrados
DESCASC
Racha de viento máxima en m/sg (hora)
DESCASC
Velocidad máxima media en intervalos de 10 minutos(hora)
DESCASC
Precipitaciones diarias en mm
DESCASC
Precipitaciones de 00:00 a 06:00 en mm
DESCASC
Precipitaciones de 06:00 a 12:00 en mm
DESCASC
Precipitaciones de 12:00 a 18:00 en mm
DESCASC
Precipitaciones de 18:00 a 24:00 en mm
DESCASC
20-09-2018 27 (14:40) 20.2 (05:30) 23.6 6.39 (15:30) 4.17 (15:40) 0 0 0 0 0
19-09-2018 26.1 (14:30) 20 (01:50) 23.1 6.94 (18:30) 4.44 (18:00) 0.8 0 0 0.2 0.6
18-09-2018 26.8 (16:20) 20.3 (23:59) 23.5 10.83 (09:20) 7.78 (09:20) 2.2 0 2.2 0 0
17-09-2018 28.3 (13:40) 20.9 (05:10) 24.6 7.78 (18:50) 5 (18:50) 0 0 0 0 0
16-09-2018 28.2 (15:20) 20.3 (00:00) 24.3 7.78 (15:20) 5 (13:30) 0 0 0 0 0
15-09-2018 27.2 (13:20) 19.7 (00:00) 23.5 8.06 (11:40) 5.83 (14:30) 1.2 0 0 0.6 0.6
14-09-2018 27.1 (13:20) 19.5 (00:00) 23.3 6.11 (14:20) 3.89 (14:00) 0 0 0 0 0
13-09-2018 25.5 (16:10) 19.2 (00:00) 22.4 9.72 (03:10) 6.39 (00:50) 25.6 25.6 0 0 0
12-09-2018 25.8 (16:20) 21.1 (00:00) 23.4 10.56 (20:10) 6.67 (20:10) 20.6 0 1.8 0.4 18.4
11-09-2018 28.4 (13:30) 20.1 (00:00) 24.3 10.83 (16:10) 7.22 (16:10) 0 0 0 0 0
10-09-2018 26.3 (15:10) 19.9 (00:00) 23.1 11.39 (10:30) 7.5 (11:00) 18.6 0.2 18.4 0 0
09-09-2018 27.5 (13:30) 20.5 (00:00) 24 10.83 (19:40) 6.67 (17:00) 0.4 0 0 0.4 0
08-09-2018 28.6 (13:40) 18.8 (00:00) 23.7 11.39 (15:50) 6.11 (21:30) 0 0 0 0 0
07-09-2018 24.9 (11:50) 19.7 (00:00) 22.3 8.89 (10:40) 6.11 (10:40) 0 0 0 0 0
06-09-2018 29.1 (14:10) 19.3 (00:00) 24.2 11.67 (06:10) 6.39 (06:10) 0 0 0 0 0
05-09-2018 29.7 (11:20) 23.1 (00:00) 26.4 6.67 (16:20) 4.72 (18:10) 1.6 0 0 1.6 0
04-09-2018 30.9 (14:30) 22 (00:00) 26.4 9.17 (18:20) 6.67 (17:50) 1 1 0 0 0
03-09-2018 29.9 (14:30) 21.4 (00:00) 25.6 10.56 (15:30) 6.39 (15:40) 0 0 0 0 0
02-09-2018 28.4 (15:00) 20 (00:00) 24.2 8.33 (15:10) 5.28 (18:00) 0 0 0 0 0
01-09-2018 26.4 (14:50) 19 (00:00) 22.7 8.61 (15:10) 5.28 (12:10) 0 0 0 0 0
31-08-2018 26.2 (15:20) 19.7 (00:00) 23 8.89 (15:30) 5.28 (15:20) 0 0 0 0 0
30-08-2018 26.7 (15:10) 20.3 (00:00) 23.5 10.83 (11:00) 7.22 (10:20) 0 0 0 0 0
29-08-2018 28.7 (10:50) 22.1 (00:00) 25.4 7.78 (15:50) 5 (16:50) 0 0 0 0 0
28-08-2018 29.1 (11:50) 21.8 (00:00) 25.4 11.67 (23:20) 8.61 (23:20) 0 0 0 0 0
27-08-2018 28.2 (14:10) 20.3 (00:00) 24.3 6.67 (14:30) 4.17 (14:20) 0 0 0 0 0
26-08-2018 25.1 (15:40) 20.3 (00:00) 22.7 9.17 (00:20) 6.11 (00:10) 0 0 0 0 0
25-08-2018 25.1 (13:20) 21.7 (00:00) 23.4 8.89 (23:59) 5.83 (22:10) 0 0 0 0 0

Gráficas

Temp. máximas Temp. mínimas Temp. medias Precipitaciones Rachas de viento máximas Velocidades máximas media en intervalos de 10 minutos

Datos horarios

Fecha y hora oficial Temperatura (ºC) Velocidad del viento (km/h) Dirección del viento Racha (km/h) Dirección de racha Precipitación (mm) Presión (hPa) Tendencia (hPa) Humedad (%)
2018-09-23 23:00:00 22.9 0 Calma 5 Este 0 -- -- 87
2018-09-23 22:00:00 23.7 4 Oeste 29 Sudoeste 0 -- -- 83
2018-09-23 21:00:00 24.3 21 Sudoeste 33 Sudoeste 0 -- -- 79
2018-09-23 20:00:00 24.4 18 Sudoeste 25 Sudoeste 0 -- -- 83
2018-09-23 19:00:00 25.8 16 Sudoeste 24 Sudoeste 0 -- -- 78
2018-09-23 18:00:00 26.7 19 Sudoeste 25 Sudoeste 0 -- -- 75
2018-09-23 17:00:00 28.2 16 Sur 23 Sudoeste 0 -- -- 68
2018-09-23 16:00:00 27.7 15 Sudoeste 21 Sudoeste 0 -- -- 71
2018-09-23 15:00:00 26.9 12 Norte 21 Noroeste 0 -- -- 77
2018-09-23 14:00:00 28.1 11 Norte 20 Noroeste 0 -- -- 69
2018-09-23 13:00:00 27.6 9 Norte 18 Norte 0 -- -- 71
2018-09-23 12:00:00 27.3 9 Norte 18 Norte 0 -- -- 74
2018-09-23 11:00:00 26.6 12 Norte 18 Norte 0 -- -- 78
2018-09-23 10:00:00 25.7 9 Norte 14 Noroeste 0 -- -- 81
2018-09-23 09:00:00 23.2 4 Sur 6 Sur 0 -- -- 88
2018-09-23 08:00:00 21.6 5 Nordeste 7 Nordeste 0 -- -- 91
2018-09-23 07:00:00 21.7 2 Nordeste 8 Nordeste 0 -- -- 91
2018-09-23 06:00:00 22.2 6 Norte 13 Noroeste 0 -- -- 93
2018-09-23 05:00:00 22.5 9 Norte 14 Norte 0 -- -- 93
2018-09-23 04:00:00 22.6 7 Norte 15 Noroeste 0 -- -- 94
2018-09-23 03:00:00 22.6 5 Oeste 11 Noroeste 0 -- -- 93
2018-09-23 02:00:00 22.7 3 Sudoeste 10 Oeste 0 -- -- 91
2018-09-23 01:00:00 22.8 8 Oeste 13 Sudoeste 0 -- -- 92
2018-09-23 00:00:00 22.9 0 Calma 22 Sudoeste 0 -- -- 90
2018-09-22 23:00:00 23.2 13 Sudoeste 25 Sudoeste 0 -- -- 88
2018-09-22 22:00:00 23.2 17 Sudoeste 26 Sudoeste 0 -- -- 86
2018-09-22 21:00:00 23.1 10 Sudoeste 17 Sudoeste 0 -- -- 85
2018-09-22 20:00:00 23.5 12 Sudoeste 20 Sudoeste 0 -- -- 82
2018-09-22 19:00:00 25.5 12 Sudoeste 19 Sur 0 -- -- 70
2018-09-22 18:00:00 26.7 11 Sudoeste 22 Sudoeste 0 -- -- 72
2018-09-22 17:00:00 26.3 4 Noroeste 14 Norte 0 -- -- 71
2018-09-22 16:00:00 27 7 Norte 15 Norte 0 -- -- 68
2018-09-22 15:00:00 26.7 11 Norte 18 Norte 0 -- -- 69
2018-09-22 14:00:00 26.5 6 Nordeste 18 Noroeste 0 -- -- 67
2018-09-22 13:00:00 25.9 10 Norte 23 Norte 0 -- -- 70
2018-09-22 12:00:00 25.2 17 Norte 26 Nordeste 0 -- -- 70
2018-09-22 11:00:00 25 18 Nordeste 28 Nordeste 0 -- -- 72
2018-09-22 10:00:00 24.6 15 Norte 33 Nordeste 0 -- -- 73
2018-09-22 09:00:00 23.8 18 Nordeste 26 Norte 0 -- -- 78
2018-09-22 08:00:00 23 15 Norte 21 Norte 0 -- -- 79
2018-09-22 07:00:00 22.9 9 Nordeste 22 Norte 0 -- -- 76
2018-09-22 06:00:00 23.3 15 Norte 25 Norte 0 -- -- 76
2018-09-22 05:00:00 22.5 11 Norte 19 Norte 0 -- -- 81
2018-09-22 04:00:00 22.1 5 Nordeste 9 Nordeste 0 -- -- 87
2018-09-22 03:00:00 21.9 2 Nordeste 8 Norte 0 -- -- 93
2018-09-22 02:00:00 22 4 Noroeste 9 Norte 0 -- -- 95
2018-09-22 01:00:00 22.4 6 Norte 13 Norte 0 -- -- 95
2018-09-22 00:00:00 22.5 7 Norte 10 Norte 0 -- -- 95
2018-09-21 23:00:00 22.5 3 Nordeste 6 Oeste 0 -- -- 93
2018-09-21 22:00:00 22.5 3 Oeste 8 Oeste 0 -- -- 92
2018-09-21 21:00:00 22.5 4 Oeste 6 Noroeste 0 -- -- 91
2018-09-21 20:00:00 23.9 3 Oeste 13 Norte 0 -- -- 86
2018-09-21 19:00:00 25.5 9 Norte 13 Norte 0 -- -- 79
2018-09-21 18:00:00 26.4 10 Norte 21 Norte 0 -- -- 77
2018-09-21 17:00:00 27 15 Norte 23 Norte 0 -- -- 73
2018-09-21 16:00:00 27.3 14 Norte 26 Norte 0 -- -- 72
2018-09-21 15:00:00 27.8 18 Norte 26 Noroeste 0 -- -- 69
2018-09-21 14:00:00 28 18 Norte 30 Noroeste 0 -- -- 67
2018-09-21 13:00:00 28.1 10 Noroeste 19 Oeste 0 -- -- 61
2018-09-21 12:00:00 27.5 11 Oeste 21 Oeste 0 -- -- 65
2018-09-21 11:00:00 26.1 10 Oeste 18 Noroeste 0 -- -- 77
2018-09-21 10:00:00 24.4 12 Oeste 21 Oeste 0 -- -- 87
2018-09-21 09:00:00 23 4 Oeste 9 Oeste 0 -- -- 94
2018-09-21 08:00:00 21.3 0 Calma 6 Oeste 0.2 -- -- 97
2018-09-21 07:00:00 21.3 0 Calma 4 Oeste 0 -- -- 97
2018-09-21 06:00:00 21.4 -- -- -- -- 0 -- -- 96
2018-09-21 05:00:00 21.5 0 Calma 4 Noroeste 0 -- -- 96
2018-09-21 04:00:00 21.4 3 Oeste 7 Oeste 0 -- -- 96
2018-09-21 03:00:00 21.5 5 Oeste 9 Oeste 0 -- -- 96
2018-09-21 02:00:00 21.4 6 Oeste 9 Oeste 0 -- -- 96
2018-09-21 01:00:00 21.7 5 Oeste 9 Noroeste 0 -- -- 95
2018-09-21 00:00:00 21.6 5 Oeste 8 Oeste 0 -- -- 95
2018-09-20 23:00:00 22 3 Oeste 4 Oeste 0 -- -- 94
2018-09-20 22:00:00 22.1 0 Calma 3 Noroeste 0 -- -- 92
2018-09-20 21:00:00 22.9 0 Calma 8 Noroeste 0 -- -- 90
2018-09-20 20:00:00 23.4 5 Noroeste 17 Oeste 0 -- -- 88
2018-09-20 19:00:00 24.7 9 Noroeste 18 Norte 0 -- -- 82
2018-09-20 18:00:00 25.8 10 Noroeste 18 Norte 0 -- -- 76
2018-09-20 17:00:00 26.1 15 Norte 22 Norte 0 -- -- 73
2018-09-20 16:00:00 26.8 12 Norte 23 Norte 0 -- -- 69
2018-09-20 15:00:00 26.9 9 Norte 17 Noroeste 0 -- -- 67
2018-09-20 14:00:00 26.6 9 Norte 19 Noroeste 0 -- -- 69
2018-09-20 13:00:00 26.1 13 Norte 21 Norte 0 -- -- 73
2018-09-20 12:00:00 25.6 12 Norte 19 Norte 0 -- -- 75
2018-09-20 11:00:00 23.7 10 Norte 15 Norte 0 -- -- 84
2018-09-20 10:00:00 23.7 9 Norte 13 Norte 0 -- -- 85
2018-09-20 09:00:00 21.9 0 Calma 2 Oeste 0 -- -- 93
2018-09-20 08:00:00 20.5 0 Calma 3 Oeste 0 -- -- 96
2018-09-20 07:00:00 20.3 0 Calma 3 Norte 0 -- -- 96
2018-09-20 06:00:00 20.4 0 Calma 3 Sudoeste 0 -- -- 97
2018-09-20 05:00:00 20.4 0 Calma 4 Noroeste 0 -- -- 96
2018-09-20 04:00:00 20.4 0 Calma 4 Norte 0 -- -- 97
2018-09-20 03:00:00 20.4 0 Calma 4 Oeste 0 -- -- 97
2018-09-20 02:00:00 20.4 2 Oeste 4 Oeste 0 -- -- 97
2018-09-20 01:00:00 20.5 2 Sudoeste 3 Sudoeste 0 -- -- 97
2018-09-20 00:00:00 20.7 0 Calma 4 Oeste 0 -- -- 96
2018-09-19 23:00:00 21.1 0 Calma 5 Oeste 0 -- -- 96
2018-09-19 22:00:00 21.7 2 Oeste 5 Nordeste 0 -- -- 95
2018-09-19 21:00:00 22.4 4 Nordeste 6 Nordeste 0 -- -- 92
2018-09-19 20:00:00 23 5 Nordeste 14 Nordeste 0 -- -- 89
2018-09-19 19:00:00 23.9 9 Norte 25 Noroeste 0.6 -- -- 89
2018-09-19 18:00:00 25.2 16 Norte 21 Norte 0 -- -- 80
2018-09-19 17:00:00 24.9 13 Norte 21 Norte 0 -- -- 76
2018-09-19 16:00:00 25.7 12 Norte 17 Norte 0 -- -- 73
2018-09-19 15:00:00 25.3 13 Norte 21 Norte 0 -- -- 77
2018-09-19 14:00:00 25.2 8 Norte 14 Norte 0 -- -- 81
2018-09-19 13:00:00 23.8 13 Norte 21 Norte 0.2 -- -- 82
2018-09-19 12:00:00 25.5 12 Norte 18 Nordeste 0 -- -- 79
2018-09-19 11:00:00 25 8 Norte 15 Noroeste 0 -- -- 81
2018-09-19 10:00:00 22.8 2 Oeste 4 Sudoeste 0 -- -- 89
2018-09-19 09:00:00 21 0 Calma 6 Nordeste 0 -- -- 92
2018-09-19 08:00:00 20.3 0 Calma 5 Oeste 0 -- -- 92
2018-09-19 07:00:00 20.2 0 Calma 6 Oeste 0 -- -- 92
2018-09-19 06:00:00 20.1 3 Oeste 4 Oeste 0 -- -- 94
2018-09-19 05:00:00 20.5 2 Sudoeste 4 Oeste 0 -- -- 94
2018-09-19 04:00:00 20.8 4 Sudoeste 6 Sudoeste 0 -- -- 92
2018-09-19 03:00:00 20.3 3 Oeste 5 Sur 0 -- -- 92
2018-09-19 02:00:00 20.3 4 Sur 6 Sudoeste 0 -- -- 91
2018-09-19 01:00:00 20.5 0 Calma 6 Oeste 0 -- -- 89
2018-09-19 00:00:00 20.3 4 Oeste 6 Nordeste 0 -- -- 88
2018-09-18 23:00:00 20.9 3 Sur 8 Sudoeste 0 -- -- 82
2018-09-18 22:00:00 20.9 4 Sudoeste 10 Sur 0 -- -- 83
2018-09-18 21:00:00 22 4 Sur 8 Sudeste 0 -- -- 80
2018-09-18 20:00:00 22.9 7 Sudeste 20 Sudeste 0 -- -- 79
2018-09-18 19:00:00 24.7 12 Sudeste 19 Este 0 -- -- 76
2018-09-18 18:00:00 24.9 4 Sur 16 Sudoeste 0 -- -- 81
2018-09-18 17:00:00 25.8 8 Sur 13 Sur 0 -- -- 75
2018-09-18 16:00:00 26.4 9 Sudeste 18 Sudeste 0 -- -- 75
2018-09-18 15:00:00 25 7 Sur 24 Este 0 -- -- 81
2018-09-18 14:00:00 23.7 14 Este 34 Este 0 -- -- 88
2018-09-18 13:00:00 23.1 10 Nordeste 14 Norte 0 -- -- 91
2018-09-18 12:00:00 23.8 4 Sudoeste 29 Sudoeste 0 -- -- 82
2018-09-18 11:00:00 24.8 19 Sudoeste 37 Sudoeste 0 -- -- 85
2018-09-18 10:00:00 24.4 25 Sudoeste 39 Sudoeste 0 -- -- 85
2018-09-18 09:00:00 23.9 19 Sudoeste 30 Sudoeste 0 -- -- 92
2018-09-18 08:00:00 23.1 12 Sur 20 Sudoeste 2 -- -- 99
2018-09-18 07:00:00 22.1 2 Sur 5 Sur 0.2 -- -- 98
2018-09-18 06:00:00 22.4 2 Oeste 12 Sudeste 0 -- -- 98
2018-09-18 05:00:00 22.9 10 Sudeste 13 Sudeste 0 -- -- 97
2018-09-18 04:00:00 22.7 6 Sudeste 9 Sudeste 0 -- -- 97
2018-09-18 03:00:00 22.5 4 Sudeste 6 Sudeste 0 -- -- 97
2018-09-18 02:00:00 22.2 0 Calma 4 Sur 0 -- -- 97
2018-09-18 01:00:00 21.8 2 Sudeste 4 Sudoeste 0 -- -- 96
2018-09-18 00:00:00 22.1 0 Calma 4 Oeste 0 -- -- 96
2018-09-17 23:00:00 22.4 0 Calma 4 Sur 0 -- -- 96
2018-09-17 22:00:00 22.9 0 Calma 4 Este 0 -- -- 93
2018-09-17 21:00:00 23.8 3 Nordeste 9 Este 0 -- -- 90
2018-09-17 20:00:00 24.4 9 Este 18 Este 0 -- -- 88
2018-09-17 19:00:00 25.1 12 Nordeste 28 Este 0 -- -- 86
2018-09-17 18:00:00 25.1 5 Sudoeste 23 Sudoeste 0 -- -- 87
2018-09-17 17:00:00 26 11 Nordeste 19 Nordeste 0 -- -- 80
2018-09-17 16:00:00 27.2 13 Nordeste 20 Nordeste 0 -- -- 72
2018-09-17 15:00:00 26.9 14 Nordeste 23 Nordeste 0 -- -- 74
2018-09-17 14:00:00 27.3 11 Nordeste 20 Nordeste 0 -- -- 74
2018-09-17 13:00:00 27.6 11 Nordeste 19 Este 0 -- -- 73
2018-09-17 12:00:00 27.4 10 Norte 16 Norte 0 -- -- 77
2018-09-17 11:00:00 26.3 6 Norte 19 Norte 0 -- -- 80
2018-09-17 10:00:00 24.3 7 Norte 10 Norte 0 -- -- 93
2018-09-17 09:00:00 22.4 2 Oeste 6 Noroeste 0 -- -- 98
2018-09-17 08:00:00 21.7 0 Calma 6 Sur 0 -- -- 98
2018-09-17 07:00:00 21.3 5 Oeste 6 Sudeste 0 -- -- 98
2018-09-17 06:00:00 20.9 0 Calma 6 Norte 0 -- -- 98
2018-09-17 05:00:00 21 3 Nordeste 10 Noroeste 0 -- -- 97
2018-09-17 04:00:00 21.7 0 Calma 11 Norte 0 -- -- 95
2018-09-17 03:00:00 22.2 0 Calma 12 Sur 0 -- -- 94
2018-09-17 02:00:00 22 4 Este 6 Nordeste 0 -- -- 95
2018-09-17 01:00:00 21.7 0 Calma 7 Nordeste 0 -- -- 96
2018-09-17 00:00:00 22 0 Calma 4 Sudeste 0 -- -- 94
2018-09-16 23:00:00 22.6 0 Calma 5 Norte 0 -- -- 93
2018-09-16 22:00:00 23.2 4 Norte 7 Nordeste 0 -- -- 91
2018-09-16 21:00:00 23.5 4 Norte 12 Este 0 -- -- 90
2018-09-16 20:00:00 24.2 7 Este 19 Este 0 -- -- 87
2018-09-16 19:00:00 25.3 10 Este 18 Sudeste 0 -- -- 83
2018-09-16 18:00:00 26 14 Este 25 Este 0 -- -- 77
2018-09-16 17:00:00 26.2 12 Este 22 Nordeste 0 -- -- 80
2018-09-16 16:00:00 26.5 14 Este 28 Este 0 -- -- 77
2018-09-16 15:00:00 27.9 10 Sudeste 23 Sudeste 0 -- -- 70
2018-09-16 14:00:00 26.9 12 Este 27 Este 0 -- -- 73
2018-09-16 13:00:00 28 12 Este 24 Este 0 -- -- 69
2018-09-16 12:00:00 26.4 14 Este 21 Este 0 -- -- 75
2018-09-16 11:00:00 25.8 15 Este 24 Sudeste 0 -- -- 75
2018-09-16 10:00:00 24.9 14 Este 20 Este 0 -- -- 80
2018-09-16 09:00:00 23 0 Calma 6 Oeste 0 -- -- 88
2018-09-16 08:00:00 20.7 2 Norte 15 Este 0 -- -- 93
2018-09-16 07:00:00 20.7 3 Este 9 Sudeste 0 -- -- 93
2018-09-16 06:00:00 21.5 8 Sudeste 13 Sudeste 0 -- -- 88
2018-09-16 05:00:00 21 2 Nordeste 17 Este 0 -- -- 91
2018-09-16 04:00:00 20.7 8 Este 13 Este 0 -- -- 94
2018-09-16 03:00:00 20.4 3 Sudoeste 8 Norte 0 -- -- 95
2018-09-16 02:00:00 20.6 6 Norte 9 Nordeste 0 -- -- 93
2018-09-16 01:00:00 21.3 4 Nordeste 12 Sudeste 0 -- -- 91
2018-09-16 00:00:00 20.6 3 Sudoeste 8 Oeste 0 -- -- 95
2018-09-15 23:00:00 20.6 6 Noroeste 8 Noroeste 0 -- -- 94
2018-09-15 22:00:00 20.8 0 Calma 7 Este 0 -- -- 94
2018-09-15 21:00:00 21.3 2 Nordeste 7 Oeste 0 -- -- 93
2018-09-15 20:00:00 21.7 3 Nordeste 17 Nordeste 0 -- -- 91
2018-09-15 19:00:00 22.1 13 Este 21 Este 0.6 -- -- 90
2018-09-15 18:00:00 22.8 15 Nordeste 23 Nordeste 0.6 -- -- 89
2018-09-15 17:00:00 25.4 8 Sudeste 21 Nordeste 0 -- -- 73
2018-09-15 16:00:00 25.4 14 Nordeste 23 Nordeste 0 -- -- 74
2018-09-15 15:00:00 25.6 12 Este 27 Este 0 -- -- 72
2018-09-15 14:00:00 26.1 17 Nordeste 27 Nordeste 0 -- -- 72
2018-09-15 13:00:00 27.1 13 Este 23 Nordeste 0 -- -- 67
2018-09-15 12:00:00 25.3 15 Nordeste 29 Nordeste 0 -- -- 75
2018-09-15 11:00:00 25.6 14 Nordeste 20 Nordeste 0 -- -- 73
2018-09-15 10:00:00 24.9 8 Este 13 Este 0 -- -- 80
2018-09-15 09:00:00 23 0 Calma 5 Oeste 0 -- -- 91
2018-09-15 08:00:00 21.2 3 Sudoeste 7 Sudeste 0 -- -- 93
2018-09-15 07:00:00 20.3 4 Sur 10 Sudeste 0 -- -- 96
2018-09-15 06:00:00 19.9 5 Sur 7 Sudeste 0 -- -- 98
2018-09-15 05:00:00 20 3 Noroeste 4 Noroeste 0 -- -- 96
2018-09-15 04:00:00 20.8 0 Calma 6 Sur 0 -- -- 95
2018-09-15 03:00:00 20.8 4 Sudoeste 8 Sudoeste 0 -- -- 95
2018-09-15 02:00:00 20.9 6 Sudoeste 10 Sur 0 -- -- 95
2018-09-15 01:00:00 20.3 4 Oeste 6 Oeste 0 -- -- 95
2018-09-15 00:00:00 20.4 4 Oeste 5 Oeste 0 -- -- 95
2018-09-14 23:00:00 20.8 3 Sudoeste 4 Oeste 0 -- -- 93
2018-09-14 22:00:00 21.5 0 Calma 4 Sudoeste 0 -- -- 91
2018-09-14 21:00:00 22.2 2 Oeste 3 Este 0 -- -- 90
2018-09-14 20:00:00 23 4 Nordeste 10 Nordeste 0 -- -- 85
2018-09-14 19:00:00 24.4 7 Nordeste 10 Nordeste 0 -- -- 79
2018-09-14 18:00:00 24.9 7 Nordeste 13 Este 0 -- -- 78
2018-09-14 17:00:00 25.6 7 Norte 17 Norte 0 -- -- 75
2018-09-14 16:00:00 26.2 8 Nordeste 18 Norte 0 -- -- 73
2018-09-14 15:00:00 26.7 10 Norte 22 Norte 0 -- -- 72
2018-09-14 14:00:00 27 14 Norte 20 Norte 0 -- -- 68
2018-09-14 13:00:00 26.7 13 Norte 19 Norte 0 -- -- 67
2018-09-14 12:00:00 26.4 10 Norte 15 Norte 0 -- -- 69
2018-09-14 11:00:00 24.4 8 Noroeste 14 Noroeste 0 -- -- 80
2018-09-14 10:00:00 23.8 8 Oeste 12 Oeste 0 -- -- 85
2018-09-14 09:00:00 21.9 2 Sur 5 Sudoeste 0 -- -- 96
2018-09-14 08:00:00 20 4 Sudoeste 5 Oeste 0 -- -- 98
2018-09-14 07:00:00 19.9 0 Calma 5 Sur 0 -- -- 95
2018-09-14 06:00:00 20 0 Calma 2 Nordeste 0 -- -- 94
2018-09-14 05:00:00 20.1 0 Calma 4 Oeste 0 -- -- 95
2018-09-14 04:00:00 20.1 0 Calma 3 Noroeste 0 -- -- 94
2018-09-14 03:00:00 20.1 4 Norte 9 Norte 0 -- -- 94
2018-09-14 02:00:00 20 5 Norte 7 Norte 0 -- -- 96
2018-09-14 01:00:00 20.1 0 Calma 3 Oeste 0 -- -- 95
2018-09-14 00:00:00 20.4 0 Calma 5 Sur 0 -- -- 94
2018-09-13 23:00:00 20.7 0 Calma 4 Noroeste 0 -- -- 94
2018-09-13 22:00:00 21.2 4 Noroeste 6 Noroeste 0 -- -- 93
2018-09-13 21:00:00 21.6 4 Norte 8 Norte 0 -- -- 91
2018-09-13 20:00:00 22.8 4 Norte 20 Norte 0 -- -- 86
2018-09-13 19:00:00 23.4 13 Norte 25 Norte 0 -- -- 84
2018-09-13 18:00:00 23.6 16 Norte 27 Norte 0 -- -- 83
2018-09-13 17:00:00 24.4 18 Norte 25 Norte 0 -- -- 78
2018-09-13 16:00:00 24.9 15 Norte 33 Norte 0 -- -- 79
2018-09-13 15:00:00 24.7 20 Norte 31 Norte 0 -- -- 82
2018-09-13 14:00:00 24.8 21 Norte 34 Norte 0 -- -- 82
2018-09-13 13:00:00 25.4 16 Norte 28 Norte 0 -- -- 81
2018-09-13 12:00:00 24.7 15 Norte 24 Norte 0 -- -- 82
2018-09-13 11:00:00 24.1 8 Norte 13 Noroeste 0 -- -- 80
2018-09-13 10:00:00 22.5 4 Noroeste 14 Norte 0 -- -- 89
2018-09-13 09:00:00 21.1 3 Sudoeste 8 Sudoeste 0 -- -- 97
2018-09-13 08:00:00 19.9 5 Sudoeste 9 Sur 0 -- -- 98
2018-09-13 07:00:00 19.4 6 Sur 17 Sur 0 -- -- 97
2018-09-13 06:00:00 19.4 10 Sudoeste 15 Sur 0.2 -- -- 96
2018-09-13 05:00:00 19.5 12 Sur 15 Sudoeste 0 -- -- 95
2018-09-13 04:00:00 19.2 8 Sur 35 Norte 25.4 -- -- 96
2018-09-13 03:00:00 23.2 14 Oeste 24 Oeste 0 -- -- 97
2018-09-13 02:00:00 23.3 10 Sudoeste 23 Sudoeste 0 -- -- 98
2018-09-13 01:00:00 23.6 20 Sudoeste 34 Sudoeste 0 -- -- 96
2018-09-13 00:00:00 21.9 20 Sudoeste 30 Sudoeste 0 -- -- 95
2018-09-12 23:00:00 21.5 9 Sudoeste 16 Sur 0 -- -- 96
2018-09-12 22:00:00 21.3 12 Sur 18 Sur 0 -- -- 97
2018-09-12 21:00:00 21.3 5 Sur 38 Sudoeste 9.6 -- -- 97
2018-09-12 20:00:00 21.7 21 Sur 36 Sur 1.6 -- -- 97
2018-09-12 19:00:00 22.6 15 Sudeste 33 Sudoeste 7.2 -- -- 95
2018-09-12 18:00:00 25.1 10 Sudeste 23 Sur 0 -- -- 94
2018-09-12 17:00:00 25.4 17 Sudeste 23 Sudeste 0 -- -- 94
2018-09-12 16:00:00 25.7 4 Sur 15 Este 0 -- -- 94
2018-09-12 15:00:00 25.3 6 Sudeste 21 Sudeste 0 -- -- 95
2018-09-12 14:00:00 24.7 15 Sudeste 21 Sudeste 0.4 -- -- 97
2018-09-12 13:00:00 24.2 12 Sudeste 26 Sudeste 0 -- -- 97
2018-09-12 12:00:00 23.8 13 Sudeste 26 Sudeste 0.6 -- -- 95
2018-09-12 11:00:00 23.6 4 Sudeste 10 Sudeste 0.8 -- -- 95
2018-09-12 10:00:00 24.4 2 Sur 32 Sudeste 0.4 -- -- 89
2018-09-12 09:00:00 24.2 18 Sudeste 28 Sudeste 0 -- -- 86
2018-09-12 08:00:00 23.6 11 Sudeste 20 Sudeste 0 -- -- 89
2018-09-12 07:00:00 23.5 9 Sudeste 23 Sudeste 0 -- -- 94
2018-09-12 06:00:00 23.4 11 Sudeste 21 Sudeste 0 -- -- 95
2018-09-12 05:00:00 23.5 10 Este 23 Este 0 -- -- 94
2018-09-12 04:00:00 23.5 14 Este 28 Sudeste 0 -- -- 93
2018-09-12 03:00:00 23.3 12 Este 22 Este 0 -- -- 94
2018-09-12 02:00:00 23.4 6 Sudeste 22 Sudeste 0 -- -- 92
2018-09-12 01:00:00 23.3 9 Este 16 Este 0 -- -- 93
2018-09-12 00:00:00 23.3 8 Este 17 Este 0 -- -- 94
2018-09-11 23:00:00 22.9 8 Nordeste 14 Nordeste 0 -- -- 94
2018-09-11 22:00:00 22.8 8 Nordeste 14 Nordeste 0 -- -- 93
2018-09-11 21:00:00 23.3 6 Nordeste 12 Este 0 -- -- 90
2018-09-11 20:00:00 24.2 8 Este 22 Este 0 -- -- 86
2018-09-11 19:00:00 25.4 14 Este 25 Este 0 -- -- 80
2018-09-11 18:00:00 25.6 18 Este 33 Este 0 -- -- 78
2018-09-11 17:00:00 26.4 15 Nordeste 39 Nordeste 0 -- -- 78
2018-09-11 16:00:00 27.6 21 Este 31 Este 0 -- -- 64
2018-09-11 15:00:00 28.2 14 Sudeste 23 Este 0 -- -- 62
2018-09-11 14:00:00 28 12 Este 23 Este 0 -- -- 62
2018-09-11 13:00:00 27.1 21 Nordeste 31 Este 0 -- -- 69
2018-09-11 12:00:00 26.4 19 Nordeste 31 Este 0 -- -- 69
2018-09-11 11:00:00 26.3 15 Nordeste 27 Nordeste 0 -- -- 71
2018-09-11 10:00:00 24.5 12 Nordeste 22 Este 0 -- -- 81
2018-09-11 09:00:00 22.7 6 Nordeste 10 Nordeste 0 -- -- 93
2018-09-11 08:00:00 20.9 4 Nordeste 8 Nordeste 0 -- -- 97
2018-09-11 07:00:00 20.7 4 Norte 7 Norte 0 -- -- 97
2018-09-11 06:00:00 20.5 3 Norte 7 Norte 0 -- -- 98
2018-09-11 05:00:00 20.1 6 Norte 7 Norte 0 -- -- 97
2018-09-11 04:00:00 20.6 0 Calma 4 Oeste 0 -- -- 97
2018-09-11 03:00:00 20.4 2 Oeste 3 Oeste 0 -- -- 96
2018-09-11 02:00:00 20.3 0 Calma 5 Norte 0 -- -- 94
2018-09-11 01:00:00 20.7 2 Norte 4 Nordeste 0 -- -- 93
2018-09-11 00:00:00 21.5 3 Nordeste 5 Nordeste 0 -- -- 90
2018-09-10 23:00:00 21.1 0 Calma 4 Noroeste 0 -- -- 90
2018-09-10 22:00:00 21.5 0 Calma 4 Nordeste 0 -- -- 89
2018-09-10 21:00:00 22.1 4 Nordeste 9 Nordeste 0 -- -- 86
2018-09-10 20:00:00 22.9 7 Nordeste 20 Nordeste 0 -- -- 83
2018-09-10 19:00:00 23.8 13 Nordeste 26 Nordeste 0 -- -- 79
2018-09-10 18:00:00 24.6 18 Nordeste 28 Nordeste 0 -- -- 77
2018-09-10 17:00:00 25.3 16 Nordeste 26 Nordeste 0 -- -- 73
2018-09-10 16:00:00 25 15 Norte 30 Nordeste 0 -- -- 77
2018-09-10 15:00:00 26.1 14 Nordeste 35 Este 0 -- -- 64
2018-09-10 14:00:00 26 22 Nordeste 37 Nordeste 0 -- -- 60
2018-09-10 13:00:00 24.5 22 Nordeste 36 Nordeste 0 -- -- 72
2018-09-10 12:00:00 22.3 21 Nordeste 37 Este 0 -- -- 90
2018-09-10 11:00:00 20.2 27 Este 41 Nordeste 0.4 -- -- 97
2018-09-10 10:00:00 20.3 19 Nordeste 39 Norte 7.4 -- -- 99
2018-09-10 09:00:00 20.9 21 Norte 35 Nordeste 9 -- -- 97
2018-09-10 08:00:00 22.3 17 Nordeste 29 Nordeste 1 -- -- 94
2018-09-10 07:00:00 22.9 13 Nordeste 23 Nordeste 0.6 -- -- 96
2018-09-10 06:00:00 23.4 9 Nordeste 20 Nordeste 0 -- -- 91
2018-09-10 05:00:00 23.5 11 Este 23 Este 0.2 -- -- 92
2018-09-10 04:00:00 24 11 Este 24 Nordeste 0 -- -- 90
2018-09-10 03:00:00 23.8 14 Este 22 Este 0 -- -- 90
2018-09-10 02:00:00 23.8 12 Este 21 Este 0 -- -- 92
2018-09-10 01:00:00 23.9 12 Este 22 Este 0 -- -- 91
2018-09-10 00:00:00 23.9 12 Este 25 Este 0 -- -- 90
2018-09-09 23:00:00 24 12 Este 18 Este 0 -- -- 90
2018-09-09 22:00:00 24 9 Este 13 Este 0 -- -- 90
2018-09-09 21:00:00 24.4 5 Este 23 Este 0 -- -- 89
2018-09-09 20:00:00 24.6 15 Este 39 Este 0 -- -- 88
2018-09-09 19:00:00 25.6 13 Este 34 Este 0 -- -- 82
2018-09-09 18:00:00 25.3 17 Este 37 Nordeste 0 -- -- 83
2018-09-09 17:00:00 24.8 24 Nordeste 36 Nordeste 0.2 -- -- 90
2018-09-09 16:00:00 23.6 12 Nordeste 19 Nordeste 0.2 -- -- 90
2018-09-09 15:00:00 25.3 12 Este 36 Nordeste 0 -- -- 72
2018-09-09 14:00:00 27.3 19 Este 35 Este 0 -- -- 64
2018-09-09 13:00:00 26.6 18 Este 31 Nordeste 0 -- -- 67
2018-09-09 12:00:00 26.5 19 Nordeste 32 Este 0 -- -- 66
2018-09-09 11:00:00 26.4 19 Este 30 Nordeste 0 -- -- 69
2018-09-09 10:00:00 25.9 14 Este 22 Este 0 -- -- 73
2018-09-09 09:00:00 24 12 Este 19 Este 0 -- -- 76
2018-09-09 08:00:00 21.6 5 Este 14 Nordeste 0 -- -- 87
2018-09-09 07:00:00 20.5 2 Nordeste 11 Nordeste 0 -- -- 89
2018-09-09 06:00:00 21.2 4 Nordeste 9 Nordeste 0 -- -- 87
2018-09-09 05:00:00 21 2 Sudoeste 5 Nordeste 0 -- -- 89
2018-09-09 04:00:00 21.7 3 Norte 7 Nordeste 0 -- -- 86
2018-09-09 03:00:00 22.4 4 Sur 10 Sudeste 0 -- -- 84
2018-09-09 02:00:00 23.3 4 Sudeste 16 Este 0 -- -- 80
2018-09-09 01:00:00 23.4 6 Este 21 Este 0 -- -- 79
2018-09-09 00:00:00 23.5 14 Este 23 Sudeste 0 -- -- 81
2018-09-08 23:00:00 23.4 7 Sudeste 13 Sudeste 0 -- -- 81
2018-09-08 22:00:00 23.7 10 Sudeste 28 Este 0 -- -- 81
2018-09-08 21:00:00 23.7 8 Este 15 Este 0 -- -- 79
2018-09-08 20:00:00 23.9 11 Nordeste 22 Este 0 -- -- 77
2018-09-08 19:00:00 24.7 14 Este 28 Este 0 -- -- 71
2018-09-08 18:00:00 26.1 15 Este 24 Este 0 -- -- 66
2018-09-08 17:00:00 27.9 14 Este 28 Este 0 -- -- 59
2018-09-08 16:00:00 27.7 12 Este 41 Este 0 -- -- 60
2018-09-08 15:00:00 28.1 11 Sudeste 25 Sudeste 0 -- -- 56
2018-09-08 14:00:00 28.1 9 Sudeste 23 Sudeste 0 -- -- 55
2018-09-08 13:00:00 28.2 12 Este 24 Sudeste 0 -- -- 54
2018-09-08 12:00:00 28 14 Sudeste 30 Este 0 -- -- 54
2018-09-08 11:00:00 27.1 13 Este 23 Sudeste 0 -- -- 54
2018-09-08 10:00:00 25.7 14 Nordeste 22 Este 0 -- -- 62
2018-09-08 09:00:00 22.4 3 Nordeste 6 Este 0 -- -- 83
2018-09-08 08:00:00 19.6 0 Calma 4 Oeste 0 -- -- 90
2018-09-08 07:00:00 19 4 Oeste 5 Oeste 0 -- -- 92
2018-09-08 06:00:00 19.2 0 Calma 4 Oeste 0 -- -- 91
2018-09-08 05:00:00 18.9 4 Sudoeste 5 Sudoeste 0 -- -- 93
2018-09-08 04:00:00 19 0 Calma 5 Sur 0 -- -- 91
2018-09-08 03:00:00 19.5 3 Oeste 5 Oeste 0 -- -- 90
2018-09-08 02:00:00 19.6 3 Sudoeste 7 Sudoeste 0 -- -- 90
2018-09-08 01:00:00 19.4 5 Sudoeste 6 Sudoeste 0 -- -- 90
2018-09-08 00:00:00 19.7 2 Sudoeste 4 Oeste 0 -- -- 88
2018-09-07 23:00:00 19.9 3 Oeste 6 Oeste 0 -- -- 87
2018-09-07 22:00:00 20.8 2 Sudoeste 4 Sudoeste 0 -- -- 82
2018-09-07 21:00:00 22.2 3 Nordeste 9 Nordeste 0 -- -- 77
2018-09-07 20:00:00 22.9 8 Nordeste 16 Este 0 -- -- 75
2018-09-07 19:00:00 24 10 Nordeste 14 Nordeste 0 -- -- 69
2018-09-07 18:00:00 24.3 9 Nordeste 16 Nordeste 0 -- -- 68
2018-09-07 17:00:00 24.4 7 Nordeste 19 Nordeste 0 -- -- 66
2018-09-07 16:00:00 24.4 12 Nordeste 20 Nordeste 0 -- -- 65
2018-09-07 15:00:00 24.7 12 Nordeste 24 Nordeste 0 -- -- 66
2018-09-07 14:00:00 24.3 13 Nordeste 26 Nordeste 0 -- -- 68
2018-09-07 13:00:00 24.2 17 Norte 29 Norte 0 -- -- 67
2018-09-07 12:00:00 24.7 18 Nordeste 32 Nordeste 0 -- -- 67
2018-09-07 11:00:00 24.2 18 Nordeste 32 Nordeste 0 -- -- 69
2018-09-07 10:00:00 24.4 21 Nordeste 32 Nordeste 0 -- -- 67
2018-09-07 09:00:00 23.7 15 Nordeste 25 Nordeste 0 -- -- 72
2018-09-07 08:00:00 22.3 15 Nordeste 23 Nordeste 0 -- -- 79
2018-09-07 07:00:00 21.6 12 Nordeste 16 Nordeste 0 -- -- 83
2018-09-07 06:00:00 20.8 7 Nordeste 12 Nordeste 0 -- -- 87
2018-09-07 05:00:00 20 3 Nordeste 5 Nordeste 0 -- -- 93
2018-09-07 04:00:00 20.2 0 Calma 4 Noroeste 0 -- -- 94
2018-09-07 03:00:00 20.4 0 Calma 4 Oeste 0 -- -- 93
2018-09-07 02:00:00 21.1 0 Calma 3 Sur 0 -- -- 92
2018-09-07 01:00:00 21.6 0 Calma 9 Nordeste 0 -- -- 90
2018-09-07 00:00:00 22 6 Norte 12 Nordeste 0 -- -- 90
2018-09-06 23:00:00 22.5 9 Nordeste 15 Norte 0 -- -- 88
2018-09-06 22:00:00 23.1 12 Nordeste 19 Nordeste 0 -- -- 86
2018-09-06 21:00:00 23.4 8 Nordeste 14 Nordeste 0 -- -- 80
2018-09-06 20:00:00 24.1 8 Nordeste 17 Nordeste 0 -- -- 77
2018-09-06 19:00:00 24.8 12 Nordeste 19 Nordeste 0 -- -- 75
2018-09-06 18:00:00 25.7 13 Nordeste 22 Norte 0 -- -- 74
2018-09-06 17:00:00 26.3 12 Norte 22 Norte 0 -- -- 72
2018-09-06 16:00:00 26 13 Norte 26 Norte 0 -- -- 72
2018-09-06 15:00:00 26.2 17 Norte 30 Noroeste 0 -- -- 70
2018-09-06 14:00:00 28.5 14 Oeste 25 Sudoeste 0 -- -- 61
2018-09-06 13:00:00 27.5 17 Sudoeste 27 Sudoeste 0 -- -- 65
2018-09-06 12:00:00 27.8 16 Sudoeste 30 Sudoeste 0 -- -- 64
2018-09-06 11:00:00 27.5 14 Sur 24 Sur 0 -- -- 64
2018-09-06 10:00:00 25.5 10 Sur 16 Sudeste 0 -- -- 71
2018-09-06 09:00:00 22.3 3 Nordeste 9 Norte 0 -- -- 85
2018-09-06 08:00:00 19.4 4 Nordeste 8 Oeste 0 -- -- 93
2018-09-06 07:00:00 19.8 3 Nordeste 42 Noroeste 0 -- -- 89
2018-09-06 06:00:00 23.4 15 Oeste 21 Sudoeste 0 -- -- 91
2018-09-06 05:00:00 23.5 13 Sur 23 Sur 0 -- -- 91
2018-09-06 04:00:00 23.4 15 Sur 23 Sur 0 -- -- 93
2018-09-06 03:00:00 23.3 10 Sur 17 Sur 0 -- -- 95
2018-09-06 02:00:00 23.5 13 Sudeste 16 Sudeste 0 -- -- 95
2018-09-06 01:00:00 23 4 Oeste 9 Sudeste 0 -- -- 95
2018-09-06 00:00:00 23.8 7 Sur 10 Sur 0 -- -- 94
2018-09-05 23:00:00 24.1 7 Sudeste 10 Sudeste 0 -- -- 92
2018-09-05 22:00:00 24.5 2 Sudeste 5 Sudeste 0 -- -- 91
2018-09-05 21:00:00 25.2 0 Calma 10 Sur 0 -- -- 91
2018-09-05 20:00:00 26.1 4 Sudeste 15 Sudeste 0 -- -- 85
2018-09-05 19:00:00 26.7 9 Este 22 Nordeste 0 -- -- 83
2018-09-05 18:00:00 26.9 15 Nordeste 22 Nordeste 0 -- -- 85
2018-09-05 17:00:00 28.3 9 Este 24 Nordeste 0 -- -- 77
2018-09-05 16:00:00 27.5 15 Nordeste 21 Norte 0 -- -- 79
2018-09-05 15:00:00 28.8 5 Sudeste 13 Este 0 -- -- 72
2018-09-05 14:00:00 27.5 9 Nordeste 17 Este 0 -- -- 82
2018-09-05 13:00:00 26.5 8 Nordeste 15 Sur 1.6 -- -- 84
2018-09-05 12:00:00 28.3 8 Sudeste 15 Sudeste 0 -- -- 74
2018-09-05 11:00:00 29 8 Sudeste 16 Sudeste 0 -- -- 70
2018-09-05 10:00:00 27.6 10 Sudeste 15 Sudeste 0 -- -- 78
2018-09-05 09:00:00 25.7 4 Este 12 Este 0 -- -- 89
2018-09-05 08:00:00 23.7 4 Este 6 Este 0 -- -- 97
2018-09-05 07:00:00 23.3 3 Noroeste 7 Nordeste 0 -- -- 98
2018-09-05 06:00:00 23.3 2 Nordeste 6 Nordeste 0 -- -- 97
2018-09-05 05:00:00 23.5 2 Norte 5 Norte 0 -- -- 96
2018-09-05 04:00:00 23.9 0 Calma 8 Nordeste 0 -- -- 95
2018-09-05 03:00:00 24.2 6 Norte 16 Sudeste 0 -- -- 94
2018-09-05 02:00:00 24.7 7 Sudeste 18 Sudeste 0 -- -- 92
2018-09-05 01:00:00 24.8 6 Sudeste 18 Este 0 -- -- 91
2018-09-05 00:00:00 24.5 10 Este 16 Este 0 -- -- 92
2018-09-04 23:00:00 24.4 9 Nordeste 13 Nordeste 0 -- -- 92
2018-09-04 22:00:00 24.7 6 Este 22 Este 0 -- -- 89
2018-09-04 21:00:00 24.9 14 Este 25 Este 0 -- -- 88
2018-09-04 20:00:00 25.8 16 Este 27 Este 0 -- -- 83
2018-09-04 19:00:00 27.1 16 Sudeste 33 Este 0 -- -- 75
2018-09-04 18:00:00 28.5 23 Este 32 Este 0 -- -- 70
2018-09-04 17:00:00 28.9 4 Norte 20 Norte 0 -- -- 65
2018-09-04 16:00:00 29.2 10 Noroeste 19 Norte 0 -- -- 69
2018-09-04 15:00:00 29.8 8 Noroeste 17 Este 0 -- -- 66
2018-09-04 14:00:00 29.2 6 Sudoeste 19 Sudoeste 0 -- -- 67
2018-09-04 13:00:00 29.4 14 Sudoeste 26 Sur 0 -- -- 69
2018-09-04 12:00:00 29.3 12 Sudeste 31 Sudeste 0 -- -- 67
2018-09-04 11:00:00 28.4 17 Sur 27 Sur 0 -- -- 66
2018-09-04 10:00:00 26.3 21 Sudeste 28 Sudeste 0 -- -- 79
2018-09-04 09:00:00 24.9 13 Sudeste 23 Sur 0 -- -- 85
2018-09-04 08:00:00 23.4 7 Sur 21 Sur 0 -- -- 91
2018-09-04 07:00:00 23.3 12 Sur 27 Sudeste 0 -- -- 94
2018-09-04 06:00:00 23.2 15 Sur 25 Sudeste 0 -- -- 96
2018-09-04 05:00:00 22.8 6 Sur 30 Sudeste 0.2 -- -- 94
2018-09-04 04:00:00 22.3 14 Sudeste 22 Este 0.6 -- -- 93
2018-09-04 03:00:00 22.3 5 Noroeste 21 Sudeste 0 -- -- 91
2018-09-04 02:00:00 22.9 9 Sur 24 Sudeste 0.2 -- -- 89
2018-09-04 01:00:00 24.7 15 Sur 26 Sudoeste 0 -- -- 89
2018-09-04 00:00:00 24.2 12 Sudoeste 19 Sudoeste 0 -- -- 85
2018-09-03 23:00:00 23.8 6 Sudoeste 15 Sur 0 -- -- 82
2018-09-03 22:00:00 24.4 3 Sur 27 Sudeste 0 -- -- 79
2018-09-03 21:00:00 24.6 21 Sur 35 Sur 0 -- -- 79
2018-09-03 20:00:00 25.2 19 Sudeste 36 Sudeste 0 -- -- 76
2018-09-03 19:00:00 26.2 13 Sur 22 Sur 0 -- -- 73
2018-09-03 18:00:00 27.6 15 Sur 26 Sur 0 -- -- 67
2018-09-03 17:00:00 28.4 18 Sur 33 Sur 0 -- -- 64
2018-09-03 16:00:00 28.1 21 Sudeste 38 Sur 0 -- -- 67
2018-09-03 15:00:00 29.5 17 Sur 31 Sur 0 -- -- 58
2018-09-03 14:00:00 29.6 18 Sur 32 Sudoeste 0 -- -- 59
2018-09-03 13:00:00 29.3 18 Sudoeste 31 Sudoeste 0 -- -- 57
2018-09-03 12:00:00 29.3 13 Sudeste 27 Sudeste 0 -- -- 58
2018-09-03 11:00:00 28.1 12 Sudeste 22 Sur 0 -- -- 62
2018-09-03 10:00:00 27.2 9 Sudeste 19 Sudeste 0 -- -- 67
2018-09-03 09:00:00 25.1 5 Sudeste 9 Sudeste 0 -- -- 74
2018-09-03 08:00:00 21.8 5 Sur 9 Sudeste 0 -- -- 85
2018-09-03 07:00:00 21.9 3 Sur 9 Sur 0 -- -- 84
2018-09-03 06:00:00 22 5 Sur 12 Sur 0 -- -- 83
2018-09-03 05:00:00 22.2 8 Sur 13 Sudoeste 0 -- -- 82
2018-09-03 04:00:00 22.4 8 Sudoeste 13 Sudoeste 0 -- -- 81
2018-09-03 03:00:00 22.2 7 Sur 12 Sur 0 -- -- 81
2018-09-03 02:00:00 22.4 6 Sudoeste 10 Sur 0 -- -- 78
2018-09-03 01:00:00 22.5 7 Sudoeste 12 Sur 0 -- -- 77
2018-09-03 00:00:00 23.1 7 Sudoeste 16 Sur 0 -- -- 73
2018-09-02 23:00:00 23.9 9 Sur 18 Sur 0 -- -- 69
2018-09-02 22:00:00 24.2 13 Sur 22 Sur 0 -- -- 67
2018-09-02 21:00:00 24 9 Sur 21 Sur 0 -- -- 66
2018-09-02 20:00:00 24.8 14 Sur 27 Sur 0 -- -- 62
2018-09-02 19:00:00 25.8 15 Sur 30 Sur 0 -- -- 59
2018-09-02 18:00:00 26.9 19 Sur 28 Sur 0 -- -- 55
2018-09-02 17:00:00 27.6 18 Sur 26 Sur 0 -- -- 51
2018-09-02 16:00:00 27.4 15 Sudoeste 30 Sudoeste 0 -- -- 54
2018-09-02 15:00:00 28.4 17 Sudoeste 26 Sudoeste 0 -- -- 49
2018-09-02 14:00:00 26.9 11 Sur 26 Sudoeste 0 -- -- 57
2018-09-02 13:00:00 27 13 Sudoeste 22 Sudoeste 0 -- -- 56
2018-09-02 12:00:00 27.3 9 Sudoeste 22 Sur 0 -- -- 54
2018-09-02 11:00:00 27.5 4 Oeste 15 Sudoeste 0 -- -- 51
2018-09-02 10:00:00 26.2 5 Oeste 12 Oeste 0 -- -- 60
2018-09-02 09:00:00 23.3 3 Sur 8 Sudoeste 0 -- -- 75
2018-09-02 08:00:00 21.7 5 Sudoeste 9 Sudoeste 0 -- -- 80
2018-09-02 07:00:00 20.7 4 Sudoeste 5 Sudoeste 0 -- -- 80
2018-09-02 06:00:00 20.6 3 Sudoeste 6 Sur 0 -- -- 77
2018-09-02 05:00:00 20.6 2 Sudoeste 9 Sur 0 -- -- 76
2018-09-02 04:00:00 21.2 4 Sudoeste 14 Sur 0 -- -- 73
2018-09-02 03:00:00 20.9 5 Sudoeste 9 Sudoeste 0 -- -- 73
2018-09-02 02:00:00 20.4 5 Sur 7 Sur 0 -- -- 75
2018-09-02 01:00:00 20.4 4 Oeste 5 Oeste 0 -- -- 75
2018-09-02 00:00:00 20.7 2 Oeste -- -- 0 -- -- 74
2018-09-01 23:00:00 20.4 3 Oeste 5 Sudeste 0 -- -- 75
2018-09-01 22:00:00 21.5 0 Calma 7 Nordeste 0 -- -- 70
2018-09-01 21:00:00 22 5 Nordeste 17 Nordeste 0 -- -- 67
2018-09-01 20:00:00 22.8 13 Nordeste 21 Nordeste 0 -- -- 65
2018-09-01 19:00:00 23.9 16 Nordeste 27 Nordeste 0 -- -- 65
2018-09-01 18:00:00 25 14 Nordeste 23 Nordeste 0 -- -- 60
2018-09-01 17:00:00 25.6 13 Nordeste 26 Nordeste 0 -- -- 59
2018-09-01 16:00:00 26.1 15 Nordeste 31 Nordeste 0 -- -- 59
2018-09-01 15:00:00 26.1 15 Nordeste 27 Nordeste 0 -- -- 58
2018-09-01 14:00:00 25.7 14 Nordeste 28 Nordeste 0 -- -- 58
2018-09-01 13:00:00 25.7 16 Nordeste 29 Nordeste 0 -- -- 57
2018-09-01 12:00:00 25.3 18 Nordeste 30 Norte 0 -- -- 58
2018-09-01 11:00:00 25.4 18 Nordeste 29 Este 0 -- -- 58
2018-09-01 10:00:00 24.9 17 Nordeste 26 Nordeste 0 -- -- 60
2018-09-01 09:00:00 23.9 15 Nordeste 24 Nordeste 0 -- -- 68
2018-09-01 08:00:00 20.4 5 Nordeste 8 Nordeste 0 -- -- 80
2018-09-01 07:00:00 19.4 0 Calma 2 Sudoeste 0 -- -- 81
2018-09-01 06:00:00 19 0 Calma 8 Oeste 0 -- -- 83
2018-09-01 05:00:00 19.8 0 Calma 4 Sudoeste 0 -- -- 82
2018-09-01 04:00:00 19.6 3 Sudoeste 4 Sudoeste 0 -- -- 82
2018-09-01 03:00:00 19.9 0 Calma 4 Oeste 0 -- -- 82
2018-09-01 02:00:00 20.2 5 Oeste 7 Sudoeste 0 -- -- 80
2018-09-01 01:00:00 20.2 4 Oeste 6 Oeste 0 -- -- 80
2018-09-01 00:00:00 20.4 3 Oeste 6 Sudoeste 0 -- -- 78
2018-08-31 23:00:00 21.1 0 Calma 3 Oeste 0 -- -- 75
2018-08-31 22:00:00 21.7 0 Calma 10 Este 0 -- -- 72
2018-08-31 21:00:00 22.3 5 Este 12 Este 0 -- -- 69
2018-08-31 20:00:00 23.3 8 Este 19 Nordeste 0 -- -- 65
2018-08-31 19:00:00 24.3 13 Nordeste 21 Nordeste 0 -- -- 63
2018-08-31 18:00:00 25.1 12 Nordeste 24 Nordeste 0 -- -- 61
2018-08-31 17:00:00 25.5 13 Nordeste 26 Nordeste 0 -- -- 56
2018-08-31 16:00:00 25.3 15 Nordeste 32 Nordeste 0 -- -- 59
2018-08-31 15:00:00 25.6 16 Nordeste 28 Nordeste 0 -- -- 56
2018-08-31 14:00:00 25.1 15 Nordeste 24 Nordeste 0 -- -- 60
2018-08-31 13:00:00 25.6 12 Nordeste 25 Nordeste 0 -- -- 58
2018-08-31 12:00:00 25.1 14 Nordeste 28 Nordeste 0 -- -- 60
2018-08-31 11:00:00 24.8 15 Nordeste 22 Nordeste 0 -- -- 61
2018-08-31 10:00:00 24 15 Nordeste 24 Nordeste 0 -- -- 67
2018-08-31 09:00:00 23.7 10 Nordeste 16 Nordeste 0 -- -- 71
2018-08-31 08:00:00 20.6 3 Nordeste 5 Nordeste 0 -- -- 83
2018-08-31 07:00:00 19.9 2 Noroeste 5 Norte 0 -- -- 85
2018-08-31 06:00:00 19.7 0 Calma 4 Noroeste 0 -- -- 87
2018-08-31 05:00:00 20 0 Calma 3 Oeste 0 -- -- 87
2018-08-31 04:00:00 20 0 Calma 4 Oeste 0 -- -- 89
2018-08-31 03:00:00 20.1 0 Calma 2 Oeste 0 -- -- 90
2018-08-31 02:00:00 20.2 0 Calma 4 Oeste 0 -- -- 88
2018-08-31 01:00:00 20.3 0 Calma 5 Oeste 0 -- -- 88
2018-08-31 00:00:00 20.3 3 Oeste 5 Oeste 0 -- -- 87
2018-08-30 23:00:00 20.8 0 Calma 5 Noroeste 0 -- -- 85
2018-08-30 22:00:00 21.6 0 Calma 5 Nordeste 0 -- -- 81
2018-08-30 21:00:00 22.6 3 Nordeste 9 Nordeste 0 -- -- 77
2018-08-30 20:00:00 23.4 7 Nordeste 15 Nordeste 0 -- -- 74
2018-08-30 19:00:00 24.8 10 Nordeste 19 Nordeste 0 -- -- 69
2018-08-30 18:00:00 25.4 13 Nordeste 23 Norte 0 -- -- 65
2018-08-30 17:00:00 25.9 15 Nordeste 25 Nordeste 0 -- -- 65
2018-08-30 16:00:00 26.5 16 Nordeste 25 Nordeste 0 -- -- 59
2018-08-30 15:00:00 26.6 17 Nordeste 33 Nordeste 0 -- -- 59
2018-08-30 14:00:00 26.6 21 Nordeste 32 Norte 0 -- -- 61
2018-08-30 13:00:00 26.3 22 Nordeste 35 Nordeste 0 -- -- 60
2018-08-30 12:00:00 26.1 22 Nordeste 36 Nordeste 0 -- -- 61
2018-08-30 11:00:00 26.2 23 Nordeste 39 Nordeste 0 -- -- 65
2018-08-30 10:00:00 25.8 23 Nordeste 37 Nordeste 0 -- -- 65
2018-08-30 09:00:00 25.2 22 Nordeste 37 Nordeste 0 -- -- 68
2018-08-30 08:00:00 24.3 14 Nordeste 30 Nordeste 0 -- -- 75
2018-08-30 07:00:00 24 15 Norte 26 Nordeste 0 -- -- 77
2018-08-30 06:00:00 23.2 8 Nordeste 17 Norte 0 -- -- 83
2018-08-30 05:00:00 22.8 9 Norte 16 Norte 0 -- -- 87
2018-08-30 04:00:00 22.9 6 Nordeste 14 Nordeste 0 -- -- 91
2018-08-30 03:00:00 23.1 10 Nordeste 15 Nordeste 0 -- -- 88
2018-08-30 02:00:00 23.2 10 Nordeste 14 Nordeste 0 -- -- 92
2018-08-30 01:00:00 23.2 10 Nordeste 15 Nordeste 0 -- -- 95
2018-08-30 00:00:00 23.5 6 Norte 21 Nordeste 0 -- -- 92
2018-08-29 23:00:00 24.1 13 Nordeste 20 Nordeste 0 -- -- 90
2018-08-29 22:00:00 23.9 10 Nordeste 18 Norte 0 -- -- 91
2018-08-29 21:00:00 24.2 8 Norte 18 Norte 0 -- -- 90
2018-08-29 20:00:00 24.7 13 Norte 20 Nordeste 0 -- -- 88
2018-08-29 19:00:00 26 14 Nordeste 23 Nordeste 0 -- -- 82
2018-08-29 18:00:00 27.4 13 Norte 21 Norte 0 -- -- 76
2018-08-29 17:00:00 27.1 17 Norte 26 Norte 0 -- -- 81
2018-08-29 16:00:00 28.5 15 Norte 28 Norte 0 -- -- 70
2018-08-29 15:00:00 27.8 13 Norte 22 Norte 0 -- -- 76
2018-08-29 14:00:00 28 12 Norte 20 Norte 0 -- -- 74
2018-08-29 13:00:00 28.2 14 Norte 21 Norte 0 -- -- 72
2018-08-29 12:00:00 28.5 8 Nordeste 15 Nordeste 0 -- -- 72
2018-08-29 11:00:00 28.6 5 Nordeste 12 Sudeste 0 -- -- 70
2018-08-29 10:00:00 27.4 6 Norte 12 Este 0 -- -- 76
2018-08-29 09:00:00 26 7 Nordeste 12 Nordeste 0 -- -- 87
2018-08-29 08:00:00 22.6 3 Sudeste 6 Sudeste 0 -- -- 96
2018-08-29 07:00:00 22.1 2 Sur 5 Oeste 0 -- -- 94
2018-08-29 06:00:00 22.4 4 Oeste 11 Sudoeste 0 -- -- 94
2018-08-29 05:00:00 22.8 9 Sudoeste 17 Sur 0 -- -- 92
2018-08-29 04:00:00 23.2 12 Sudoeste 16 Sur 0 -- -- 90
2018-08-29 03:00:00 23.1 8 Sudoeste 13 Sudoeste 0 -- -- 92
2018-08-29 02:00:00 23.6 10 Sudoeste 15 Sudoeste 0 -- -- 91
2018-08-29 01:00:00 23.8 9 Sudoeste 18 Sudoeste 0 -- -- 90
2018-08-29 00:00:00 23.6 12 Sudoeste 42 Sudeste 0 -- -- 88
2018-08-28 23:00:00 24.2 27 Sudeste 36 Sudeste 0 -- -- 85
2018-08-28 22:00:00 24.1 15 Sudeste 21 Sudeste 0 -- -- 86
2018-08-28 21:00:00 24.6 6 Sur 10 Sur 0 -- -- 84
2018-08-28 20:00:00 25.3 9 Sudoeste 20 Sudoeste 0 -- -- 82
2018-08-28 19:00:00 27 15 Sudoeste 24 Sudoeste 0 -- -- 76
2018-08-28 18:00:00 28 13 Sur 22 Sur 0 -- -- 74
2018-08-28 17:00:00 27.7 9 Este 18 Nordeste 0 -- -- 75
2018-08-28 16:00:00 28.2 11 Nordeste 22 Nordeste 0 -- -- 74
2018-08-28 15:00:00 27.9 10 Norte 18 Nordeste 0 -- -- 73
2018-08-28 14:00:00 26.7 9 Norte 23 Norte 0 -- -- 76
2018-08-28 13:00:00 29.1 11 Norte 20 Nordeste 0 -- -- 67
2018-08-28 12:00:00 28.8 8 Norte 14 Nordeste 0 -- -- 65
2018-08-28 11:00:00 27.1 6 Norte 13 Norte 0 -- -- 72
2018-08-28 10:00:00 26.7 6 Norte 11 Norte 0 -- -- 75
2018-08-28 09:00:00 24.9 2 Oeste 4 Noroeste 0 -- -- 84
2018-08-28 08:00:00 22.4 4 Sudoeste 5 Sudoeste 0 -- -- 91
2018-08-28 07:00:00 21.9 4 Sudoeste 5 Sudoeste 0 -- -- 93
2018-08-28 06:00:00 22 3 Sudoeste 9 Sudoeste 0 -- -- 92
2018-08-28 05:00:00 22.1 4 Sudoeste 12 Sudoeste 0 -- -- 90
2018-08-28 04:00:00 22 9 Sudoeste 13 Sudoeste 0 -- -- 91
2018-08-28 03:00:00 21.8 9 Sudoeste 12 Sudoeste 0 -- -- 90
2018-08-28 02:00:00 22.1 2 Sur 4 Sudoeste 0 -- -- 89
2018-08-28 01:00:00 22.2 0 Calma 6 Sur 0 -- -- 87
2018-08-28 00:00:00 22.4 2 Sur 10 Sudoeste 0 -- -- 86
2018-08-27 23:00:00 22.8 4 Sudoeste 11 Sudoeste 0 -- -- 84
2018-08-27 22:00:00 23.1 6 Sudoeste 10 Sudoeste 0 -- -- 83
2018-08-27 21:00:00 24.1 4 Sudoeste 6 Oeste 0 -- -- 80
2018-08-27 20:00:00 25.8 3 Noroeste 12 Nordeste 0 -- -- 67
2018-08-27 19:00:00 26.4 8 Norte 13 Norte 0 -- -- 65
2018-08-27 18:00:00 26.6 9 Nordeste 16 Este 0 -- -- 67
2018-08-27 17:00:00 26.8 7 Sudoeste 14 Nordeste 0 -- -- 73
2018-08-27 16:00:00 27.2 7 Este 18 Norte 0 -- -- 68
2018-08-27 15:00:00 27.7 11 Norte 24 Norte 0 -- -- 65
2018-08-27 14:00:00 28.1 11 Norte 20 Norte 0 -- -- 61
2018-08-27 13:00:00 28.1 9 Nordeste 17 Norte 0 -- -- 62
2018-08-27 12:00:00 27.2 9 Norte 18 Norte 0 -- -- 64
2018-08-27 11:00:00 25.3 6 Norte 13 Norte 0 -- -- 74
2018-08-27 10:00:00 26 4 Nordeste 11 Norte 0 -- -- 70
2018-08-27 09:00:00 24.2 3 Sur 8 Sur 0 -- -- 80
2018-08-27 08:00:00 21.3 4 Sudoeste 8 Sudoeste 0 -- -- 88
2018-08-27 07:00:00 20.7 5 Sudoeste 6 Sudoeste 0 -- -- 89
2018-08-27 06:00:00 20.6 5 Sudoeste 9 Sudoeste 0 -- -- 88
2018-08-27 05:00:00 20.4 6 Sudoeste 9 Sudoeste 0 -- -- 88
2018-08-27 04:00:00 20.4 8 Sudoeste 10 Sudoeste 0 -- -- 88
2018-08-27 03:00:00 20.4 6 Sudoeste 12 Sudoeste 0 -- -- 86
2018-08-27 02:00:00 20.9 9 Sudoeste 14 Sudoeste 0 -- -- 83
2018-08-27 01:00:00 20.6 11 Sudoeste 15 Sudoeste 0 -- -- 83
2018-08-27 00:00:00 20.9 12 Sur 14 Sur 0 -- -- 80
2018-08-26 23:00:00 20.7 9 Sur 10 Sur 0 -- -- 78
2018-08-26 22:00:00 21 4 Sudoeste 9 Sur 0 -- -- 76
2018-08-26 21:00:00 21.6 6 Sur 14 Sudoeste 0 -- -- 73
2018-08-26 20:00:00 23.2 10 Sudoeste 14 Sur 0 -- -- 67
2018-08-26 19:00:00 24 6 Nordeste 13 Nordeste 0 -- -- 64
2018-08-26 18:00:00 24.3 12 Nordeste 19 Nordeste 0 -- -- 62
2018-08-26 17:00:00 24.9 6 Nordeste 21 Norte 0 -- -- 60
2018-08-26 16:00:00 25.1 10 Nordeste 22 Nordeste 0 -- -- 59
2018-08-26 15:00:00 24.4 11 Nordeste 24 Norte 0 -- -- 60
2018-08-26 14:00:00 24.5 12 Norte 24 Nordeste 0 -- -- 59
2018-08-26 13:00:00 24.2 11 Norte 28 Norte 0 -- -- 60
2018-08-26 12:00:00 23.9 13 Norte 25 Nordeste 0 -- -- 60
2018-08-26 11:00:00 23 16 Norte 29 Nordeste 0 -- -- 62
2018-08-26 10:00:00 23.1 18 Nordeste 30 Nordeste 0 -- -- 63
2018-08-26 09:00:00 22.4 15 Nordeste 25 Nordeste 0 -- -- 64
2018-08-26 08:00:00 20.8 12 Nordeste 18 Nordeste 0 -- -- 67
2018-08-26 07:00:00 20.4 10 Nordeste 21 Nordeste 0 -- -- 69
2018-08-26 06:00:00 20.8 14 Nordeste 28 Nordeste 0 -- -- 68
2018-08-26 05:00:00 21.2 15 Nordeste 32 Norte 0 -- -- 69
2018-08-26 04:00:00 21.6 16 Nordeste 31 Nordeste 0 -- -- 63
2018-08-26 03:00:00 21.8 15 Norte 24 Norte 0 -- -- 62
2018-08-26 02:00:00 21.8 13 Nordeste 23 Nordeste 0 -- -- 64
2018-08-26 01:00:00 21.5 17 Nordeste 33 Nordeste 0 -- -- 68
2018-08-26 00:00:00 21.8 20 Nordeste 32 Nordeste 0 -- -- 67
2018-08-25 23:00:00 22.1 15 Nordeste 30 Nordeste 0 -- -- 68
2018-08-25 22:00:00 22.4 15 Nordeste 24 Nordeste 0 -- -- 70
2018-08-25 21:00:00 22 14 Nordeste 24 Nordeste 0 -- -- 73
2018-08-25 20:00:00 22.4 19 Nordeste 26 Nordeste 0 -- -- 74
2018-08-25 19:00:00 22.7 18 Nordeste 29 Nordeste 0 -- -- 73
2018-08-25 18:00:00 23.2 18 Nordeste 27 Nordeste 0 -- -- 72
2018-08-25 17:00:00 23.3 17 Nordeste 26 Nordeste 0 -- -- 73
2018-08-25 16:00:00 22.8 13 Nordeste 30 Nordeste 0 -- -- 80
2018-08-25 15:00:00 24.2 17 Nordeste 29 Nordeste 0 -- -- 69
2018-08-25 14:00:00 24.8 19 Nordeste 31 Nordeste 0 -- -- 68
2018-08-25 13:00:00 24.7 18 Nordeste 30 Nordeste 0 -- -- 69
2018-08-25 12:00:00 24 14 Nordeste 26 Nordeste 0 -- -- 72
2018-08-25 11:00:00 24 16 Nordeste 26 Nordeste 0 -- -- 74
2018-08-25 10:00:00 23.8 17 Nordeste 25 Nordeste 0 -- -- 75
2018-08-25 09:00:00 23.5 10 Nordeste 15 Este 0 -- -- 78
2018-08-25 08:00:00 22.5 4 Nordeste 7 Nordeste 0 -- -- 82
2018-08-25 07:00:00 21.9 3 Este 7 Nordeste 0 -- -- 85
2018-08-25 06:00:00 21.7 3 Noroeste 7 Este 0 -- -- 88
2018-08-25 05:00:00 22.4 4 Nordeste 10 Norte 0 -- -- 86
2018-08-25 04:00:00 21.9 0 Calma 4 Sur 0 -- -- 88
2018-08-25 03:00:00 22 0 Calma 5 Sudoeste 0 -- -- 87
2018-08-25 02:00:00 21.7 3 Sudoeste -- -- 0 -- -- 88
2018-08-25 01:00:00 22.2 0 Calma 3 Sudoeste 0 -- -- 86
2018-08-25 00:00:00 22.4 2 Sudoeste 4 Sudoeste 0 -- -- 87